Time;durP1;ratioP1;P1;durP2;ratioP2;P2;SDS_P1;SDS_P2;PMS_P1;PMS_P2;Temp;Humidity;BMP_temperature;BMP_pressure;BME280_temperature;BME280_humidity;BME280_pressure;Samples;Min_cycle;Max_cycle;Signal;HPM_P1;HPM_P2
2021/05/28 00:00:22;;;;;;;2.03;1.55;;;;;;;13.54;65.87;99694.59;4229158;33;35028;-93
2021/05/28 00:02:56;;;;;;;2.37;1.55;;;;;;;13.51;66.02;99691.47;4232720;33;34773;-94
2021/05/28 00:05:28;;;;;;;2.28;1.92;;;;;;;13.43;66.18;99692.50;4218809;33;33695;-93
2021/05/28 00:08:03;;;;;;;2.67;1.60;;;;;;;13.44;66.21;99690.63;4232247;33;33748;-93
2021/05/28 00:10:35;;;;;;;4.05;1.98;;;;;;;13.38;66.42;99684.97;4231514;33;34455;-93
2021/05/28 00:13:09;;;;;;;1.77;1.50;;;;;;;13.46;66.09;99691.22;4228549;33;34389;-92
2021/05/28 00:15:42;;;;;;;2.50;2.12;;;;;;;13.58;65.46;99687.69;4230336;33;33968;-94
2021/05/28 00:18:30;;;;;;;2.00;1.80;;;;;;;13.62;65.21;99690.00;4232141;33;34846;-93
2021/05/28 00:21:03;;;;;;;2.87;1.80;;;;;;;13.53;65.32;99683.94;4222708;33;33724;-94
2021/05/28 00:23:51;;;;;;;2.28;1.73;;;;;;;13.67;65.10;99685.62;4205383;34;34303;-93
2021/05/28 00:26:24;;;;;;;2.90;2.15;;;;;;;13.24;66.32;99686.78;4209727;34;34740;-93
2021/05/28 00:29:12;;;;;;;2.62;2.25;;;;;;;13.44;65.73;99686.00;4205949;34;36815;-93
2021/05/28 00:31:45;;;;;;;2.50;1.70;;;;;;;13.37;65.94;99686.03;4217358;33;35533;-93
2021/05/28 00:34:19;;;;;;;2.58;1.98;;;;;;;13.36;66.01;99686.22;4201483;34;34108;-92
2021/05/28 00:36:52;;;;;;;2.22;1.90;;;;;;;13.48;65.42;99689.16;4201756;34;34712;-93
2021/05/28 00:39:25;;;;;;;2.15;1.95;;;;;;;13.59;65.28;99692.09;4216812;33;33920;-93
2021/05/28 00:41:58;;;;;;;2.72;2.10;;;;;;;13.73;64.63;99689.37;4194047;34;34828;-93
2021/05/28 00:44:32;;;;;;;2.42;1.80;;;;;;;13.32;66.12;99684.94;4215889;34;33797;-93
2021/05/28 00:47:06;;;;;;;3.22;2.10;;;;;;;13.41;65.70;99690.00;4213149;34;34133;-93
2021/05/28 00:49:39;;;;;;;5.20;2.17;;;;;;;13.11;66.86;99691.38;4217349;34;33630;-94
2021/05/28 00:52:19;;;;;;;5.43;2.00;;;;;;;12.96;67.26;99686.94;4193440;34;34598;-94
2021/05/28 00:55:12;;;;;;;2.60;2.10;;;;;;;13.05;67.17;99693.00;4222153;33;32940;-90
2021/05/28 00:57:45;;;;;;;3.97;2.20;;;;;;;13.16;66.52;99697.84;4219833;33;34525;-94
2021/05/28 01:00:25;;;;;;;3.37;2.87;;;;;;;13.35;65.84;99698.13;4230209;33;35085;-90
2021/05/28 01:02:58;;;;;;;3.33;2.12;;;;;;;13.30;66.03;99695.16;4221484;33;33765;-90
2021/05/28 01:05:38;;;;;;;3.53;2.15;;;;;;;13.13;66.73;99700.97;4194076;34;33631;-90
2021/05/28 01:08:12;;;;;;;3.17;2.15;;;;;;;13.24;66.25;99694.09;4205643;34;33160;-90
2021/05/28 01:10:45;;;;;;;5.05;2.22;;;;;;;13.37;65.98;99696.06;4216773;34;33584;-90
2021/05/28 01:13:18;;;;;;;3.45;2.10;;;;;;;13.16;66.51;99695.13;4205338;34;34503;-90
2021/05/28 01:15:51;;;;;;;4.40;2.00;;;;;;;13.28;66.11;99694.53;4204144;34;35153;-90
2021/05/28 01:18:24;;;;;;;3.50;2.70;;;;;;;13.42;65.60;99694.38;4203900;34;35099;-90
2021/05/28 01:20:57;;;;;;;2.92;2.12;;;;;;;13.40;65.85;99699.19;4217938;34;33812;-90
2021/05/28 01:23:30;;;;;;;3.05;2.60;;;;;;;13.41;65.59;99705.44;4202847;34;35378;-95
2021/05/28 01:26:10;;;;;;;5.28;3.33;;;;;;;13.34;66.15;99699.19;4229172;33;34835;-94
2021/05/28 01:28:43;;;;;;;2.95;2.42;;;;;;;13.29;65.94;99699.75;4229739;33;34722;-90
2021/05/28 01:31:17;;;;;;;3.83;2.75;;;;;;;13.02;66.82;99698.84;4229867;33;33476;-90
2021/05/28 01:33:50;;;;;;;3.12;2.50;;;;;;;13.03;67.32;99695.09;4219538;33;34556;-90
2021/05/28 01:36:25;;;;;;;3.40;2.42;;;;;;;13.07;66.88;99693.66;4218159;33;36182;-91
2021/05/28 01:38:58;;;;;;;3.05;2.60;;;;;;;13.18;66.56;99700.38;4218814;33;34423;-91
2021/05/28 01:41:32;;;;;;;3.08;2.75;;;;;;;12.94;67.46;99701.75;4230773;33;33656;-94
2021/05/28 01:44:10;;;;;;;2.75;2.50;;;;;;;12.94;67.54;99707.19;4216160;33;34391;-93
2021/05/28 01:46:43;;;;;;;3.33;2.67;;;;;;;13.03;67.04;99704.06;4231228;33;34674;-90
2021/05/28 01:49:16;;;;;;;5.60;3.25;;;;;;;12.94;67.50;99707.19;4219624;33;33296;-94
2021/05/28 01:51:50;;;;;;;3.90;2.70;;;;;;;12.88;67.83;99698.81;4219345;33;33427;-91
2021/05/28 01:54:24;;;;;;;3.05;2.67;;;;;;;13.04;67.19;99705.75;4207617;33;34993;-90
2021/05/28 01:56:58;;;;;;;3.55;2.90;;;;;;;13.13;66.94;99702.84;4219560;33;34650;-94
2021/05/28 01:59:31;;;;;;;3.60;3.00;;;;;;;12.84;67.85;99702.13;4229118;33;34088;-94
2021/05/28 02:02:06;;;;;;;3.80;3.00;;;;;;;13.04;67.23;99699.50;4219631;33;34397;-91
2021/05/28 02:04:39;;;;;;;5.72;2.72;;;;;;;13.10;66.96;99711.37;4229498;33;33845;-91
2021/05/28 02:07:12;;;;;;;6.10;2.95;;;;;;;13.06;67.25;99719.13;4224461;33;34350;-93
2021/05/28 02:09:45;;;;;;;5.57;2.90;;;;;;;13.07;67.16;99718.09;4242867;33;33818;-94
2021/05/28 02:15:51;;;;;;;3.70;3.25;;;;;;;13.00;67.47;99712.63;4010595;33;37496;-96
2021/05/28 02:18:39;;;;;;;3.20;2.87;;;;;;;13.01;67.37;99713.47;4206450;33;36081;-90
2021/05/28 02:21:12;;;;;;;3.58;2.87;;;;;;;13.28;66.43;99705.38;4230470;33;34268;-94
2021/05/28 02:24:02;;;;;;;4.60;3.30;;;;;;;12.98;67.46;99706.56;4234611;33;35121;-94
2021/05/28 02:26:36;;;;;;;4.85;3.08;;;;;;;12.80;67.94;99704.44;4223520;33;34185;-89
2021/05/28 02:29:09;;;;;;;3.42;3.05;;;;;;;12.84;67.87;99703.00;4233393;33;34304;-93
2021/05/28 02:31:48;;;;;;;4.05;3.05;;;;;;;13.10;67.25;99701.41;4233972;33;34087;-94
2021/05/28 02:34:21;;;;;;;4.15;2.83;;;;;;;12.67;68.53;99701.66;4246311;33;34544;-91
2021/05/28 02:36:54;;;;;;;6.32;3.10;;;;;;;12.79;68.03;99700.03;4234468;33;33814;-90
2021/05/28 02:39:27;;;;;;;4.35;3.08;;;;;;;13.09;67.29;99690.75;4222344;33;34107;-90
2021/05/28 02:42:00;;;;;;;3.60;2.55;;;;;;;12.96;67.16;99692.34;4257003;33;34179;-89
2021/05/28 02:44:33;;;;;;;4.43;3.22;;;;;;;12.95;67.37;99690.72;4248567;33;33484;-93
2021/05/28 02:47:06;;;;;;;6.00;3.37;;;;;;;13.05;67.01;99687.59;4236597;33;34778;-91
2021/05/28 02:49:40;;;;;;;5.00;3.17;;;;;;;12.62;68.68;99685.16;4235065;33;35682;-93
2021/05/28 02:52:14;;;;;;;4.68;3.50;;;;;;;13.01;67.22;99689.06;4233717;33;34799;-90
2021/05/28 02:54:48;;;;;;;5.37;3.30;;;;;;;12.86;67.35;99690.06;4233799;33;33676;-94
2021/05/28 02:57:21;;;;;;;6.95;3.15;;;;;;;12.91;67.52;99696.75;4221152;33;34896;-90
2021/05/28 02:59:54;;;;;;;3.92;3.15;;;;;;;12.72;68.04;99701.88;4234176;33;34536;-90
2021/05/28 03:02:27;;;;;;;3.00;2.72;;;;;;;12.85;67.61;99699.22;4233169;33;34909;-94
2021/05/28 03:05:43;;;;;;;4.07;2.75;;;;;;;13.04;67.02;99704.94;3746845;33;34566;-94
2021/05/28 03:08:19;;;;;;;8.40;2.97;;;;;;;13.02;66.87;99720.56;4248570;33;33289;-90
2021/05/28 03:10:53;;;;;;;6.25;3.53;;;;;;;12.93;67.17;99713.66;4248248;33;33606;-94
2021/05/28 03:13:26;;;;;;;3.50;2.65;;;;;;;12.88;67.31;99712.37;4248309;33;33239;-90
2021/05/28 03:15:59;;;;;;;3.35;2.72;;;;;;;12.97;66.77;99706.78;4247714;33;34649;-94
2021/05/28 03:18:52;;;;;;;7.95;2.75;;;;;;;12.92;67.30;99706.53;4247955;33;33809;-93
2021/05/28 03:24:03;;;;;;;5.22;2.95;;;;;;;13.01;67.16;99713.47;4223734;33;20131;-93
2021/05/28 03:26:52;;;;;;;3.85;2.53;;;;;;;13.08;66.69;99714.31;4238830;33;33036;-93
2021/05/28 03:29:39;;;;;;;3.47;2.72;;;;;;;13.34;66.18;99721.72;4236532;33;34511;-93
2021/05/28 03:32:12;;;;;;;3.20;2.80;;;;;;;13.20;66.13;99712.69;4249653;33;33691;-91
2021/05/28 03:34:45;;;;;;;2.90;2.33;;;;;;;13.09;67.02;99716.00;4249163;33;33959;-92
2021/05/28 03:37:19;;;;;;;4.18;2.83;;;;;;;13.08;66.96;99722.44;4248690;33;34575;-90
2021/05/28 03:39:52;;;;;;;4.15;2.83;;;;;;;13.52;65.84;99721.13;4249302;33;34871;-95
2021/05/28 03:42:45;;;;;;;5.30;3.10;;;;;;;13.22;66.41;99718.75;4245001;33;32371;-90
2021/05/28 03:45:23;;;;;;;5.45;2.55;;;;;;;13.38;65.84;99719.41;4247316;33;32946;-93
2021/05/28 03:47:57;;;;;;;2.90;2.37;;;;;;;13.22;66.15;99717.91;4248840;33;33816;-94
2021/05/28 03:50:30;;;;;;;3.17;2.55;;;;;;;13.68;64.42;99717.16;4235937;33;34296;-92
2021/05/28 03:53:09;;;;;;;4.90;2.55;;;;;;;13.31;65.19;99715.81;4231434;33;34620;-92
2021/05/28 03:55:45;;;;;;;3.42;2.58;;;;;;;13.96;63.07;99726.97;4227927;33;34464;-91
2021/05/28 03:58:19;;;;;;;3.37;2.58;;;;;;;13.92;63.65;99731.16;4244529;33;34618;-93
2021/05/28 04:00:52;;;;;;;2.95;2.33;;;;;;;13.79;63.82;99723.84;4234200;33;33684;-96
2021/05/28 04:03:28;;;;;;;3.22;2.28;;;;;;;13.75;63.60;99720.69;4246028;33;33502;-94
2021/05/28 04:06:01;;;;;;;5.72;3.03;;;;;;;13.91;63.91;99726.78;4256486;33;33884;-93
2021/05/28 04:08:38;;;;;;;4.18;2.20;;;;;;;13.99;63.10;99729.28;4245479;33;33479;-96
2021/05/28 04:11:14;;;;;;;5.53;2.37;;;;;;;13.91;63.40;99729.50;4245489;33;34570;-93
2021/05/28 04:13:48;;;;;;;3.95;2.20;;;;;;;13.88;63.21;99729.91;4244738;33;35140;-94
2021/05/28 04:16:21;;;;;;;5.05;2.92;;;;;;;14.06;62.71;99726.56;4245316;33;33545;-94
2021/05/28 04:18:58;;;;;;;5.35;2.70;;;;;;;14.37;61.61;99722.31;4246171;33;33877;-93
2021/05/28 04:21:36;;;;;;;3.33;2.55;;;;;;;14.15;60.95;99725.28;4233415;33;33265;-91
2021/05/28 04:24:20;;;;;;;4.75;2.47;;;;;;;14.03;61.78;99727.81;4250665;33;34668;-94
2021/05/28 04:26:53;;;;;;;3.35;2.62;;;;;;;13.75;62.75;99717.97;4247670;33;36972;-94
2021/05/28 04:29:27;;;;;;;5.90;2.40;;;;;;;13.85;62.51;99722.19;4258872;33;33878;-94
2021/05/28 04:32:00;;;;;;;3.00;2.70;;;;;;;13.51;62.81;99719.44;4259773;33;34844;-91
2021/05/28 04:34:34;;;;;;;5.15;2.80;;;;;;;13.64;62.12;99723.19;4260901;33;34242;-91
2021/05/28 04:37:08;;;;;;;3.30;2.30;;;;;;;13.47;63.18;99723.59;4257481;33;33037;-92
2021/05/28 04:39:41;;;;;;;3.47;2.30;;;;;;;13.46;62.73;99724.66;4244026;33;33952;-91
2021/05/28 04:42:14;;;;;;;2.95;2.50;;;;;;;13.75;62.70;99720.69;4221725;33;34306;-91
2021/05/28 04:44:48;;;;;;;5.45;2.72;;;;;;;13.78;62.49;99730.31;4234007;33;33043;-91
2021/05/28 04:47:22;;;;;;;3.47;2.65;;;;;;;13.76;62.26;99729.72;4246605;33;34101;-91
2021/05/28 04:49:56;;;;;;;6.47;3.50;;;;;;;13.74;62.46;99723.62;4251685;33;36097;-94
2021/05/28 04:52:32;;;;;;;8.13;2.90;;;;;;;13.76;62.81;99729.72;4246179;33;33722;-91
2021/05/28 04:55:09;;;;;;;3.08;2.75;;;;;;;13.57;62.44;99729.47;4244869;33;33853;-89
2021/05/28 04:57:42;;;;;;;5.10;2.62;;;;;;;13.92;62.53;99737.44;4245061;33;33228;-93
2021/05/28 05:00:16;;;;;;;3.95;2.45;;;;;;;13.86;61.98;99737.41;4243397;33;32948;-90
2021/05/28 05:02:50;;;;;;;4.15;2.53;;;;;;;14.10;61.28;99749.53;4221412;33;35508;-94
2021/05/28 05:05:26;;;;;;;3.83;2.55;;;;;;;14.08;60.97;99735.31;4229736;33;34222;-96
2021/05/28 05:07:59;;;;;;;4.25;2.37;;;;;;;14.32;60.67;99738.44;4231290;33;33277;-91
2021/05/28 05:10:34;;;;;;;2.50;2.00;;;;;;;14.19;60.51;99742.00;4249374;33;34180;-89
2021/05/28 05:13:11;;;;;;;5.62;2.58;;;;;;;14.25;60.80;99735.72;4247430;33;35098;-91
2021/05/28 05:15:48;;;;;;;6.75;2.40;;;;;;;14.28;60.32;99740.72;4259534;33;33723;-91
2021/05/28 05:18:24;;;;;;;5.40;2.30;;;;;;;14.05;61.04;99736.56;4236035;33;32991;-90
2021/05/28 05:20:57;;;;;;;4.68;2.70;;;;;;;14.13;61.37;99751.81;4245364;33;34361;-91
2021/05/28 05:23:30;;;;;;;5.00;2.42;;;;;;;14.18;60.70;99735.75;4233657;33;34755;-94
2021/05/28 05:26:03;;;;;;;5.90;2.40;;;;;;;14.28;61.05;99741.59;4240141;33;34504;-91
2021/05/28 05:28:37;;;;;;;2.47;2.20;;;;;;;14.33;59.58;99731.97;4229523;33;33536;-95
2021/05/28 05:31:14;;;;;;;5.60;2.45;;;;;;;14.12;60.84;99750.19;4241912;33;34303;-95
2021/05/28 05:33:47;;;;;;;3.50;2.28;;;;;;;14.06;60.30;99743.69;4244006;33;34592;-89
2021/05/28 05:36:22;;;;;;;5.47;2.92;;;;;;;14.18;60.18;99754.75;4248490;33;34337;-90
2021/05/28 05:38:55;;;;;;;3.15;2.85;;;;;;;14.17;60.03;99761.22;4247403;33;33739;-90
2021/05/28 05:41:29;;;;;;;4.03;1.90;;;;;;;14.40;60.48;99757.22;4258607;33;33751;-90
2021/05/28 05:44:01;;;;;;;2.53;2.17;;;;;;;14.43;59.60;99765.81;4247400;33;33594;-91
2021/05/28 05:46:36;;;;;;;3.42;2.10;;;;;;;14.56;59.98;99754.06;4248019;33;33427;-90
2021/05/28 05:49:09;;;;;;;3.53;2.37;;;;;;;14.51;59.79;99767.47;4258427;33;33254;-91
2021/05/28 05:51:43;;;;;;;3.65;2.58;;;;;;;14.41;58.38;99764.34;4258932;33;33637;-89
2021/05/28 05:54:15;;;;;;;10.02;2.50;;;;;;;14.45;59.40;99773.75;4256794;33;35875;-90
2021/05/28 05:56:49;;;;;;;4.10;2.12;;;;;;;14.51;59.38;99777.53;4250696;33;34849;-90
2021/05/28 05:59:22;;;;;;;4.47;2.35;;;;;;;14.71;57.99;99774.78;4246231;33;34405;-90
2021/05/28 06:01:56;;;;;;;3.12;2.20;;;;;;;14.86;57.75;99780.78;4244514;33;32419;-95
2021/05/28 06:04:30;;;;;;;4.37;2.00;;;;;;;14.74;59.32;99780.59;4233076;33;33785;-89
2021/05/28 06:07:05;;;;;;;3.15;2.53;;;;;;;14.98;58.23;99783.66;4255385;33;33894;-91
2021/05/28 06:09:39;;;;;;;5.70;2.37;;;;;;;14.94;59.09;99786.00;4244316;33;32915;-89
2021/05/28 06:12:12;;;;;;;10.50;2.90;;;;;;;15.05;57.94;99791.81;4218393;33;33030;-90
2021/05/28 06:14:46;;;;;;;6.15;2.17;;;;;;;15.27;58.24;99790.47;4233272;33;35298;-90
2021/05/28 06:17:20;;;;;;;7.07;2.42;;;;;;;15.36;56.76;99791.88;4245671;33;34603;-96
2021/05/28 06:19:53;;;;;;;2.58;2.20;;;;;;;15.31;58.11;99799.88;4246069;33;34018;-89
2021/05/28 06:22:26;;;;;;;5.45;2.40;;;;;;;15.45;56.41;99800.63;4247780;33;33657;-91
2021/05/28 06:25:00;;;;;;;7.68;2.47;;;;;;;15.66;56.36;99795.91;4246935;33;33470;-88
2021/05/28 06:27:33;;;;;;;3.28;2.10;;;;;;;15.67;56.35;99794.84;4247675;33;35071;-89
2021/05/28 06:30:08;;;;;;;3.40;2.17;;;;;;;15.87;55.86;99792.03;4256408;33;32866;-90
2021/05/28 06:32:41;;;;;;;3.20;1.98;;;;;;;15.84;56.53;99803.37;4234167;33;35038;-90
2021/05/28 06:35:14;;;;;;;4.60;1.90;;;;;;;16.03;56.30;99804.25;4225397;33;35438;-89
2021/05/28 06:37:47;;;;;;;5.07;1.90;;;;;;;16.38;53.61;99801.84;4249432;33;34526;-90
2021/05/28 06:40:21;;;;;;;3.40;2.05;;;;;;;16.04;54.25;99798.56;4232851;33;34924;-89
2021/05/28 06:42:58;;;;;;;4.40;2.42;;;;;;;15.88;53.82;99804.56;4235147;33;33668;-90
2021/05/28 06:45:31;;;;;;;4.60;1.87;;;;;;;15.93;54.66;99799.31;4235321;33;34882;-89
2021/05/28 06:48:05;;;;;;;6.35;2.00;;;;;;;16.38;54.65;99798.31;4223213;33;34444;-89
2021/05/28 06:50:41;;;;;;;2.42;1.60;;;;;;;16.42;52.79;99794.91;4246176;33;34354;-88
2021/05/28 06:53:14;;;;;;;5.65;2.10;;;;;;;16.56;55.22;99800.22;4257355;33;34420;-94
2021/05/28 06:55:47;;;;;;;3.62;1.75;;;;;;;17.03;54.24;99799.75;4246680;33;33573;-90
2021/05/28 06:58:27;;;;;;;3.45;1.60;;;;;;;16.96;52.18;99799.84;4246024;33;33542;-95
2021/05/28 07:01:00;;;;;;;3.47;1.65;;;;;;;17.12;53.94;99807.41;4244678;33;35968;-91
2021/05/28 07:03:33;;;;;;;3.42;1.92;;;;;;;17.20;54.18;99792.59;4252383;33;33701;-91
2021/05/28 07:06:12;;;;;;;3.35;2.03;;;;;;;17.33;51.94;99805.22;4246797;33;34015;-91
2021/05/28 07:08:46;;;;;;;5.95;2.60;;;;;;;17.18;51.49;99802.06;4239615;33;33551;-95
2021/05/28 07:11:20;;;;;;;4.50;2.05;;;;;;;17.40;52.00;99795.06;4245222;33;33214;-95
2021/05/28 07:13:57;;;;;;;2.45;1.70;;;;;;;17.63;51.51;99796.22;4222622;33;34084;-91
2021/05/28 07:16:32;;;;;;;2.85;1.98;;;;;;;18.11;51.00;99799.91;4238227;33;36302;-95
2021/05/28 07:19:07;;;;;;;5.00;2.00;;;;;;;17.79;50.75;99803.75;4250694;33;33493;-92
2021/05/28 07:21:40;;;;;;;2.47;1.55;;;;;;;17.74;48.69;99797.31;4223755;33;35257;-93
2021/05/28 07:24:13;;;;;;;7.78;2.42;;;;;;;18.03;50.54;99781.97;4235797;33;33477;-90
2021/05/28 07:26:47;;;;;;;4.62;2.20;;;;;;;18.08;50.26;99797.66;4244958;33;33674;-90
2021/05/28 07:29:21;;;;;;;3.12;2.08;;;;;;;18.23;51.70;99789.00;4245293;33;34471;-96
2021/05/28 07:31:59;;;;;;;3.15;2.37;;;;;;;18.06;48.25;99791.59;4247439;33;33807;-91
2021/05/28 07:34:33;;;;;;;6.00;1.92;;;;;;;18.18;47.59;99785.06;4245752;33;33455;-91
2021/05/28 07:40:35;;;;;;;7.87;2.08;;;;;;;18.37;48.12;99798.66;4219920;33;33816;-94
2021/05/28 07:43:12;;;;;;;2.72;1.80;;;;;;;18.36;47.99;99786.03;4234721;33;33495;-96
2021/05/28 07:45:51;;;;;;;4.40;1.30;;;;;;;18.18;49.24;99793.25;4244318;33;34454;-90
2021/05/28 07:48:24;;;;;;;7.03;1.98;;;;;;;18.71;47.74;99804.31;4236583;33;33818;-92
2021/05/28 07:51:00;;;;;;;8.27;1.58;;;;;;;18.74;49.50;99801.09;4234626;33;33508;-92
2021/05/28 07:53:37;;;;;;;3.60;1.30;;;;;;;18.67;49.29;99805.91;4246891;33;33159;-91
2021/05/28 07:56:10;;;;;;;4.10;1.27;;;;;;;19.07;48.25;99802.37;4223259;33;33932;-89
2021/05/28 07:58:49;;;;;;;3.47;1.23;;;;;;;19.15;46.08;99809.41;4242714;33;35661;-95
2021/05/28 08:01:22;;;;;;;2.37;1.27;;;;;;;19.18;46.21;99804.28;4231817;33;33607;-94
2021/05/28 08:03:56;;;;;;;3.28;1.25;;;;;;;19.18;47.66;99808.94;4227750;33;33196;-89
2021/05/28 08:06:29;;;;;;;2.75;1.50;;;;;;;19.26;46.23;99802.22;4234472;33;33938;-91
2021/05/28 08:09:04;;;;;;;3.37;1.12;;;;;;;19.48;45.23;99805.97;4232341;33;32960;-90
2021/05/28 08:11:38;;;;;;;4.18;1.40;;;;;;;19.44;46.36;99795.75;4234462;33;34028;-89
2021/05/28 08:14:11;;;;;;;5.18;1.20;;;;;;;19.66;44.92;99809.59;4245212;33;34069;-90
2021/05/28 08:16:44;;;;;;;3.83;1.27;;;;;;;19.78;42.88;99802.16;4234213;33;33428;-96
2021/05/28 08:19:41;;;;;;;3.37;1.35;;;;;;;19.72;45.47;99803.94;4163712;33;37212;-92
2021/05/28 08:22:16;;;;;;;2.50;1.10;;;;;;;19.89;43.28;99806.72;4233697;33;33480;-96
2021/05/28 08:25:03;;;;;;;2.92;1.15;;;;;;;19.94;45.02;99806.00;4217536;33;34125;-92
2021/05/28 08:27:39;;;;;;;6.60;1.23;;;;;;;20.34;41.82;99809.66;4213834;33;34621;-96
2021/05/28 08:30:17;;;;;;;3.20;1.45;;;;;;;20.33;43.26;99802.50;4204406;34;34101;-93
2021/05/28 08:32:50;;;;;;;2.22;0.95;;;;;;;20.27;42.29;99805.19;4201540;34;34531;-93
2021/05/28 08:35:24;;;;;;;3.55;1.10;;;;;;;20.19;43.60;99816.56;4214110;34;34043;-94
2021/05/28 08:38:00;;;;;;;2.67;1.10;;;;;;;20.25;43.95;99812.84;4210778;34;34287;-91
2021/05/28 08:40:34;;;;;;;3.15;1.15;;;;;;;20.68;44.58;99809.66;4201673;34;34377;-94
2021/05/28 08:43:10;;;;;;;2.90;1.05;;;;;;;20.95;41.84;99816.06;4205853;34;34636;-94
2021/05/28 08:45:46;;;;;;;4.00;1.40;;;;;;;20.86;41.17;99811.28;4212866;33;33169;-93
2021/05/28 08:48:20;;;;;;;2.55;1.00;;;;;;;20.89;42.26;99816.28;4203404;34;34127;-91
2021/05/28 08:50:53;;;;;;;5.60;1.15;;;;;;;20.96;41.87;99798.50;4196175;34;33214;-90
2021/05/28 08:53:28;;;;;;;3.58;1.15;;;;;;;20.73;39.78;99804.22;4218521;33;33620;-93
2021/05/28 08:56:09;;;;;;;4.47;1.52;;;;;;;20.43;40.52;99809.00;4212311;34;34372;-92
2021/05/28 08:58:42;;;;;;;2.97;1.30;;;;;;;20.73;41.24;99815.22;4203062;34;35572;-89
2021/05/28 09:01:16;;;;;;;1.75;1.23;;;;;;;20.71;41.13;99809.16;4202735;34;32589;-91
2021/05/28 09:03:58;;;;;;;1.40;0.93;;;;;;;20.60;42.09;99799.91;4210874;34;33360;-93
2021/05/28 09:06:43;;;;;;;3.50;1.10;;;;;;;20.95;42.51;99813.31;4211381;34;33002;-96
2021/05/28 09:09:23;;;;;;;4.35;1.27;;;;;;;21.01;40.99;99818.91;4206205;34;33644;-93
2021/05/28 09:12:02;;;;;;;2.53;1.25;;;;;;;20.91;42.04;99803.94;4201899;34;33757;-90
2021/05/28 09:14:40;;;;;;;1.48;0.98;;;;;;;21.30;41.15;99798.38;4213649;33;34117;-94
2021/05/28 09:18:16;;;;;;;1.73;1.00;;;;;;;21.36;42.86;99787.44;4041135;28;34835;-90
2021/05/28 09:20:56;;;;;;;2.42;1.08;;;;;;;21.50;39.92;99788.75;4250139;33;33792;-93
2021/05/28 09:23:34;;;;;;;2.35;1.00;;;;;;;20.99;39.63;99819.16;4235119;33;32922;-94
2021/05/28 09:26:09;;;;;;;1.62;1.00;;;;;;;21.34;40.75;99813.25;4225934;33;35007;-94
2021/05/28 09:28:50;;;;;;;4.60;1.00;;;;;;;21.45;39.19;99810.63;4246623;33;33346;-96
2021/05/28 09:31:35;;;;;;;4.43;1.20;;;;;;;21.07;40.25;99818.69;4246260;33;32190;-93
2021/05/28 09:34:09;;;;;;;3.12;0.85;;;;;;;21.29;40.07;99815.12;4237238;33;33638;-95
2021/05/28 09:36:49;;;;;;;1.48;0.77;;;;;;;21.76;38.12;99822.81;4236212;33;34072;-93
2021/05/28 09:39:23;;;;;;;2.47;0.95;;;;;;;21.52;39.42;99817.63;4240248;33;34161;-89
2021/05/28 09:42:00;;;;;;;1.58;0.90;;;;;;;21.87;39.56;99815.50;4241654;33;34400;-93
2021/05/28 09:44:36;;;;;;;1.23;0.70;;;;;;;;;;4232100;33;33515;-91
2021/05/28 09:47:15;;;;;;;2.40;0.75;;;;;;;22.06;38.78;99823.38;4254294;33;33894;-89
2021/05/28 09:49:54;;;;;;;2.17;0.70;;;;;;;22.07;37.02;99809.34;4241741;33;34035;-92
2021/05/28 09:52:32;;;;;;;2.33;1.00;;;;;;;22.41;39.88;99824.78;4229642;33;34103;-91
2021/05/28 09:55:15;;;;;;;0.50;0.50;;;;;;;22.21;37.98;99818.00;4248337;33;33935;-90
2021/05/28 09:57:49;;;;;;;2.87;0.70;;;;;;;22.42;37.36;99818.19;4256364;33;33600;-94
2021/05/28 10:00:33;;;;;;;2.35;0.88;;;;;;;22.50;37.17;99814.94;4241371;33;33249;-91
2021/05/28 10:03:24;;;;;;;0.73;0.60;;;;;;;22.50;38.60;99821.28;4252538;33;33698;-95
2021/05/28 10:05:58;;;;;;;1.55;0.57;;;;;;;22.87;37.52;99820.41;4264166;33;34286;-89
2021/05/28 10:08:33;;;;;;;6.28;2.67;;;;;;;23.19;35.61;99824.16;4276568;33;33628;-89
2021/05/28 10:11:06;;;;;;;4.97;2.28;;;;;;;23.39;36.81;99827.00;4262498;33;35242;-93
2021/05/28 10:13:41;;;;;;;6.87;2.10;;;;;;;23.66;35.74;99805.84;4255790;33;33638;-89
2021/05/28 10:16:14;;;;;;;5.05;1.90;;;;;;;23.66;37.85;99806.66;4260539;33;34572;-94
2021/05/28 10:18:54;;;;;;;5.37;2.28;;;;;;;24.06;36.51;99802.34;4237353;33;33822;-90
2021/05/28 10:21:27;;;;;;;7.80;2.72;;;;;;;23.87;33.99;99802.03;4249190;33;33360;-91
2021/05/28 10:24:00;;;;;;;2.65;0.93;;;;;;;24.24;33.91;99806.47;4247622;33;35304;-90
2021/05/28 10:26:44;;;;;;;12.95;4.68;;;;;;;24.27;34.34;99805.09;4260436;33;33712;-89
2021/05/28 10:29:24;;;;;;;9.30;3.62;;;;;;;23.77;34.06;99813.03;4250155;33;33548;-93
2021/05/28 10:32:00;;;;;;;9.98;3.70;;;;;;;24.29;33.05;99813.94;4246519;33;34696;-95
2021/05/28 10:34:35;;;;;;;0.85;0.43;;;;;;;24.44;34.30;99822.19;4259631;33;34394;-93
2021/05/28 10:37:27;;;;;;;2.28;1.00;;;;;;;24.45;32.79;99807.28;4250061;33;34383;-91
2021/05/28 10:40:03;;;;;;;6.78;2.33;;;;;;;25.01;33.23;99813.81;4239764;33;35603;-96
2021/05/28 10:42:59;;;;;;;6.95;1.35;;;;;;;24.76;32.64;99818.31;4249681;33;32863;-90
2021/05/28 10:45:54;;;;;;;3.22;1.23;;;;;;;24.54;32.17;99815.03;4239088;33;33522;-90
2021/05/28 10:48:39;;;;;;;1.55;0.50;;;;;;;25.23;32.93;99810.69;4260413;33;33793;-94
2021/05/28 10:51:13;;;;;;;2.00;1.23;;;;;;;25.51;33.04;99817.50;4261820;33;33564;-91
2021/05/28 10:53:56;;;;;;;3.80;1.98;;;;;;;25.53;31.27;99804.19;4248632;33;34063;-90
2021/05/28 10:57:23;;;;;;;3.37;0.73;;;;;;;25.78;30.11;99812.63;4256395;33;36684;-92
2021/05/28 11:00:08;;;;;;;3.25;0.62;;;;;;;25.79;32.65;99806.78;4237257;33;33128;-90
2021/05/28 11:02:47;;;;;;;3.42;1.12;;;;;;;25.96;31.45;99808.34;4260365;33;33805;-88
2021/05/28 11:05:38;;;;;;;3.65;0.60;;;;;;;25.52;31.06;99797.03;4248634;33;34275;-89
2021/05/28 11:08:35;;;;;;;1.67;0.60;;;;;;;26.02;33.87;99804.47;4248543;33;34502;-88
2021/05/28 11:11:08;;;;;;;4.40;0.70;;;;;;;25.92;34.10;99819.19;4246681;33;33661;-96
2021/05/28 11:13:58;;;;;;;1.98;0.50;;;;;;;25.96;32.75;99802.81;4237438;33;37045;-89
2021/05/28 11:16:56;;;;;;;1.70;0.50;;;;;;;25.77;31.75;99811.00;4235410;33;35349;-88
2021/05/28 11:19:34;;;;;;;1.55;0.40;;;;;;;26.05;33.08;99787.28;4245580;33;33465;-93
2021/05/28 11:22:28;;;;;;;1.92;0.60;;;;;;;26.04;32.11;99816.88;4225991;33;34220;-94
2021/05/28 11:25:09;;;;;;;0.75;0.50;;;;;;;25.96;31.52;99817.50;4226494;33;32673;-91
2021/05/28 11:27:44;;;;;;;1.80;0.60;;;;;;;26.22;30.05;99809.81;4244343;33;34311;-94
2021/05/28 11:30:28;;;;;;;1.52;1.05;;;;;;;26.02;31.88;99815.56;4218246;33;33760;-94
2021/05/28 11:33:02;;;;;;;0.70;0.40;;;;;;;26.36;31.64;99815.53;4245174;33;34363;-90
2021/05/28 11:35:42;;;;;;;0.80;0.57;;;;;;;26.03;29.35;99811.66;4215299;33;33606;-93
2021/05/28 11:38:31;;;;;;;1.67;0.43;;;;;;;26.35;29.33;99796.44;4243237;33;33640;-96
2021/05/28 11:41:15;;;;;;;1.33;0.60;;;;;;;26.15;31.04;99802.97;4224015;33;33822;-93
2021/05/28 11:43:48;;;;;;;3.97;0.40;;;;;;;26.28;30.46;99809.78;4222629;33;34433;-93
2021/05/28 11:46:25;;;;;;;2.97;0.80;;;;;;;26.28;28.46;99795.94;4217570;33;34631;-94
2021/05/28 11:49:00;;;;;;;1.05;0.50;;;;;;;26.06;30.47;99806.38;4222790;33;33887;-93
2021/05/28 11:51:34;;;;;;;0.80;0.40;;;;;;;25.66;30.13;99801.91;4225679;33;34123;-92
2021/05/28 11:54:29;;;;;;;1.20;0.40;;;;;;;25.75;31.96;99791.91;4228470;33;33600;-94
2021/05/28 11:57:09;;;;;;;2.37;0.82;;;;;;;26.46;32.10;99797.97;4229975;33;33534;-94
2021/05/28 11:59:57;;;;;;;1.08;0.35;;;;;;;26.50;30.30;99789.91;4237040;33;33145;-96
2021/05/28 12:02:44;;;;;;;7.07;0.73;;;;;;;26.53;29.07;99798.47;4232143;33;33685;-95
2021/05/28 12:05:22;;;;;;;0.55;0.50;;;;;;;26.68;31.23;99805.00;4240631;33;33798;-88
2021/05/28 12:07:58;;;;;;;0.93;0.40;;;;;;;26.83;29.40;99790.97;4236999;33;34037;-93
2021/05/28 12:10:32;;;;;;;1.10;0.77;;;;;;;26.78;29.04;99804.88;4224030;33;32519;-96
2021/05/28 12:13:14;;;;;;;3.03;0.70;;;;;;;27.05;27.60;99786.81;4229662;33;33859;-95
2021/05/28 12:15:51;;;;;;;3.25;0.40;;;;;;;27.06;29.99;99802.34;4232177;33;34257;-96
2021/05/28 12:18:36;;;;;;;1.48;0.40;;;;;;;27.02;28.56;99799.34;4223282;33;33511;-92
2021/05/28 12:21:12;;;;;;;2.40;0.50;;;;;;;26.88;28.51;99802.00;4243499;33;33548;-94
2021/05/28 12:23:50;;;;;;;1.12;0.50;;;;;;;26.92;29.75;99797.50;4233213;33;34547;-96
2021/05/28 12:26:29;;;;;;;1.00;0.75;;;;;;;26.92;29.04;99805.84;4237961;33;34017;-94
2021/05/28 12:29:31;;;;;;;0.68;0.47;;;;;;;26.65;30.89;99819.41;4234611;33;33572;-96